createdAt,value
2022-08-25T00:02:59.632Z,70.11
2022-08-25T00:13:29.841Z,70.14
2022-08-25T00:23:58.644Z,70.07
2022-08-25T00:34:30.765Z,69.88
2022-08-25T00:45:00.620Z,69.82
2022-08-25T00:55:35.883Z,69.70
2022-08-25T01:06:06.817Z,69.65
2022-08-25T01:16:37.287Z,69.69
2022-08-25T01:27:07.449Z,69.81
2022-08-25T01:37:37.309Z,70.26
2022-08-25T01:48:07.987Z,70.64
2022-08-25T01:58:38.913Z,70.45
2022-08-25T02:09:10.889Z,71.19
2022-08-25T02:19:40.097Z,71.57
2022-08-25T02:30:10.770Z,71.72
2022-08-25T02:40:39.944Z,71.28
2022-08-25T02:51:11.236Z,70.99
2022-08-25T03:01:40.694Z,70.47
2022-08-25T03:12:11.338Z,70.62
2022-08-25T03:22:40.190Z,70.49
2022-08-25T03:33:09.180Z,70.49
2022-08-25T03:43:38.205Z,70.48
2022-08-25T03:54:08.698Z,70.00
2022-08-25T04:04:38.101Z,69.99
2022-08-25T04:15:08.000Z,69.67
2022-08-25T04:25:37.082Z,70.43
2022-08-25T04:36:11.924Z,70.42
2022-08-25T04:46:41.732Z,70.66
2022-08-25T04:57:10.949Z,71.28
2022-08-25T05:07:40.784Z,71.70
2022-08-25T05:18:09.821Z,72.43
2022-08-25T05:28:41.103Z,72.95
2022-08-25T05:39:10.331Z,73.36
2022-08-25T05:49:39.319Z,73.18
2022-08-25T06:00:10.843Z,73.03
2022-08-25T06:10:39.931Z,72.57
2022-08-25T06:21:14.609Z,70.50
2022-08-25T06:31:43.828Z,69.41
2022-08-25T06:42:12.899Z,68.07
2022-08-25T06:52:41.845Z,67.80
2022-08-25T07:03:10.821Z,66.92
2022-08-25T07:13:41.187Z,66.55
2022-08-25T07:24:12.832Z,65.50
2022-08-25T07:34:58.910Z,64.46
2022-08-25T07:45:31.308Z,63.95
2022-08-25T07:56:00.278Z,63.76
2022-08-25T08:06:30.497Z,62.98
2022-08-25T08:17:00.058Z,62.80
2022-08-25T08:27:29.152Z,62.71
2022-08-25T08:37:57.955Z,62.76
2022-08-25T08:48:51.041Z,62.30
2022-08-25T08:59:29.921Z,62.02
2022-08-25T09:10:00.162Z,62.34
2022-08-25T09:20:44.840Z,61.72
2022-08-25T09:31:20.257Z,61.77
2022-08-25T09:41:52.986Z,62.05
2022-08-25T09:52:27.994Z,61.69
2022-08-25T10:03:12.197Z,61.94
2022-08-25T10:13:45.555Z,61.92
2022-08-25T10:24:15.749Z,61.63
2022-08-25T10:34:51.588Z,61.64
2022-08-25T10:45:44.956Z,61.54
2022-08-25T10:56:18.830Z,61.54
2022-08-25T11:06:54.731Z,61.52
2022-08-25T11:17:27.003Z,60.90
2022-08-25T11:28:05.381Z,60.87
2022-08-25T11:38:49.652Z,59.48
2022-08-25T11:49:41.021Z,59.02
2022-08-25T12:00:15.141Z,58.28
2022-08-25T12:11:06.108Z,57.84
2022-08-25T12:21:39.274Z,57.21
2022-08-25T12:32:41.418Z,56.99
2022-08-25T12:43:15.100Z,55.51
2022-08-25T12:53:52.760Z,55.34
2022-08-25T13:04:44.209Z,53.76
2022-08-25T13:15:16.299Z,52.72
2022-08-25T13:25:51.852Z,52.12
2022-08-25T13:36:40.445Z,51.58
2022-08-25T13:47:12.508Z,51.33
2022-08-25T13:57:46.227Z,50.39
2022-08-25T14:18:53.877Z,52.02
2022-08-25T14:29:25.269Z,52.05
2022-08-25T14:39:55.003Z,51.54
2022-08-25T14:50:24.757Z,50.76
2022-08-25T15:00:54.459Z,50.56
2022-08-25T15:11:23.441Z,50.25
2022-08-25T15:21:52.616Z,49.96
2022-08-25T15:32:21.599Z,49.62
2022-08-25T15:42:52.725Z,50.22
2022-08-25T15:53:21.714Z,51.23
2022-08-25T16:03:51.431Z,52.17
2022-08-25T16:14:20.448Z,52.89
2022-08-25T16:24:49.562Z,53.89
2022-08-25T16:35:18.606Z,55.24
2022-08-25T16:45:47.374Z,56.26
2022-08-25T16:56:16.520Z,56.84
2022-08-25T17:06:51.629Z,57.50
2022-08-25T17:17:21.749Z,58.03
2022-08-25T17:27:56.044Z,58.60
2022-08-25T17:38:28.401Z,58.81
2022-08-25T17:48:57.758Z,59.40
2022-08-25T17:59:28.013Z,60.11
2022-08-25T18:10:02.215Z,60.59
2022-08-25T18:20:31.244Z,60.59
2022-08-25T18:31:00.183Z,61.11
2022-08-25T18:41:30.380Z,61.85
2022-08-25T18:51:59.472Z,62.45
2022-08-25T19:02:28.979Z,62.94
2022-08-25T19:12:58.832Z,62.74
2022-08-25T19:23:39.021Z,63.25
2022-08-25T19:34:10.596Z,63.73
2022-08-25T19:44:41.052Z,63.71
2022-08-25T19:55:11.957Z,63.84
2022-08-25T20:05:41.822Z,63.80
2022-08-25T20:16:11.926Z,63.88
2022-08-25T20:26:41.147Z,64.02
2022-08-25T20:37:12.377Z,64.45
2022-08-25T20:47:42.061Z,64.70
2022-08-25T20:58:11.107Z,64.77
2022-08-25T21:08:46.597Z,64.80
2022-08-25T21:19:16.705Z,64.86
2022-08-25T21:29:55.526Z,65.03
2022-08-25T21:40:25.898Z,65.29
2022-08-25T21:51:04.079Z,65.14
2022-08-25T22:01:35.430Z,64.88
2022-08-25T22:12:05.266Z,64.66
2022-08-25T22:22:34.548Z,64.75
2022-08-25T22:33:03.863Z,64.89
2022-08-25T22:43:32.730Z,65.31
2022-08-25T22:54:02.873Z,65.28
2022-08-25T23:04:32.892Z,65.25
2022-08-25T23:15:02.177Z,65.00
2022-08-25T23:25:31.677Z,64.79
2022-08-25T23:36:08.536Z,64.73
2022-08-25T23:46:39.468Z,64.89
2022-08-25T23:57:08.800Z,65.32
